Terminal Aerodrome Forecast
Issued by NWS Des Moines, IA

Home | Current Version | Previous Version | Text Only | Print | Product List | Glossary On
Versions: 1 2 3 4 5 6 7 8 9 10 11 12 13 14 15 16 17 18 19 20 21 22 23 24 25 26
023
FTUS43 KDMX 181726
TAFALO
TAF
KALO 181726Z 1818/1918 20013G19KT P6SM FEW250
     FM182300 21007KT P6SM SKC
     FM190400 VRB03KT P6SM FEW250
     FM191500 16006KT P6SM SKC=

USA.gov is the U.S. government's official web portal to all federal, state and local government web resources and services.